Time;durP1;ratioP1;P1;durP2;ratioP2;P2;SDS_P1;SDS_P2;PMS_P1;PMS_P2;Temp;Humidity;BMP_temperature;BMP_pressure;BME280_temperature;BME280_humidity;BME280_pressure;Samples;Min_cycle;Max_cycle;Signal;HPM_P1;HPM_P2
2023/07/28 00:01:01;;;;;;;;;;;;;;;17.11;100.00;100386.00;5045348;28;1479;-84
2023/07/28 00:03:29;;;;;;;;;;;;;;;17.11;100.00;100386.00;5031094;28;1301;-83
2023/07/28 00:05:54;;;;;;;;;;;;;;;17.12;100.00;100385.00;5050541;28;1405;-83
2023/07/28 00:08:27;;;;;;;;;;;;;;;17.11;100.00;100383.38;5045656;28;1044;-84
2023/07/28 00:10:55;;;;;;;;;;;;;;;17.11;100.00;100386.00;5035704;28;1465;-83
2023/07/28 00:13:20;;;;;;;;;;;;;;;17.11;100.00;100386.00;5032577;28;1149;-83
2023/07/28 00:15:45;;;;;;;;;;;;;;;17.08;100.00;100386.31;5049660;28;1642;-84
2023/07/28 00:18:12;;;;;;;;;;;;;;;17.08;100.00;100386.31;5046269;28;1902;-84
2023/07/28 00:20:40;;;;;;;;;;;;;;;17.07;100.00;100390.75;5051755;28;1713;-83
2023/07/28 00:23:05;;;;;;;;;;;;;;;17.08;100.00;100392.38;5048862;28;1482;-83
2023/07/28 00:25:30;;;;;;;;;;;;;;;17.10;100.00;100394.84;5028031;28;1642;-84
2023/07/28 00:27:56;;;;;;;;;;;;;;;17.09;100.00;100387.94;5044275;28;1325;-84
2023/07/28 00:30:23;;;;;;;;;;;;;;;17.09;100.00;100387.94;5040117;28;1430;-84
2023/07/28 00:32:49;;;;;;;;;;;;;;;17.10;100.00;100394.84;5029775;28;1393;-83
2023/07/28 00:35:14;;;;;;;;;;;;;;;17.12;100.00;100392.84;5045891;28;1332;-84
2023/07/28 00:37:39;;;;;;;;;;;;;;;17.11;100.00;100392.03;5045982;28;1099;-82
2023/07/28 00:40:07;;;;;;;;;;;;;;;17.13;100.00;100397.09;5048282;28;1882;-81
2023/07/28 00:42:35;;;;;;;;;;;;;;;17.14;100.00;100396.09;5052306;28;1517;-81
2023/07/28 00:45:00;;;;;;;;;;;;;;;17.15;100.00;100395.13;5046879;28;1139;-81
2023/07/28 00:47:31;;;;;;;;;;;;;;;17.14;100.00;100390.84;5030067;28;2188;-82
2023/07/28 00:49:56;;;;;;;;;;;;;;;17.15;100.00;100392.50;5137554;23;1972;-80
2023/07/28 00:52:21;;;;;;;;;;;;;;;17.16;100.00;100404.63;5054734;28;1162;-81
2023/07/28 00:54:46;;;;;;;;;;;;;;;17.16;100.00;100399.38;5049565;28;1342;-80
2023/07/28 00:57:12;;;;;;;;;;;;;;;17.17;100.00;100401.00;5033980;28;1307;-79
2023/07/28 00:59:38;;;;;;;;;;;;;;;17.17;100.00;100393.13;5049821;28;1983;-80
2023/07/28 01:02:03;;;;;;;;;;;;;;;17.17;100.00;100395.75;5052085;28;1677;-80
2023/07/28 01:04:28;;;;;;;;;;;;;;;17.18;100.00;100397.38;5046058;28;1129;-80
2023/07/28 01:07:20;;;;;;;;;;;;;;;17.17;100.00;100401.81;5053445;28;1040;-80
2023/07/28 01:10:04;;;;;;;;;;;;;;;17.17;100.00;100401.00;5028048;28;1422;-80
2023/07/28 01:12:29;;;;;;;;;;;;;;;17.18;100.00;100402.63;5048056;28;1158;-79
2023/07/28 01:14:54;;;;;;;;;;;;;;;17.20;100.00;100403.25;5030068;28;1440;-81
2023/07/28 01:17:19;;;;;;;;;;;;;;;17.18;100.00;100407.84;5050270;28;1272;-80
2023/07/28 01:19:45;;;;;;;;;;;;;;;17.17;100.00;100399.19;5054155;28;1893;-81
2023/07/28 01:22:29;;;;;;;;;;;;;;;17.18;100.00;100397.38;5049358;28;1521;-80
2023/07/28 01:25:03;;;;;;;;;;;;;;;17.13;100.00;100400.53;5052184;28;1238;-80
2023/07/28 01:27:29;;;;;;;;;;;;;;;17.16;100.00;100405.44;5048766;28;1028;-80
2023/07/28 01:29:54;;;;;;;;;;;;;;;17.17;100.00;100406.22;5049395;28;1204;-79
2023/07/28 01:32:19;;;;;;;;;;;;;;;17.18;100.00;100407.84;5048354;28;1376;-80
2023/07/28 01:34:44;;;;;;;;;;;;;;;17.18;100.00;100405.25;5052261;28;1271;-80
2023/07/28 01:37:10;;;;;;;;;;;;;;;17.20;100.00;100400.63;5046483;28;1206;-80
2023/07/28 01:39:35;;;;;;;;;;;;;;;17.20;100.00;100403.25;5047505;28;1953;-80
2023/07/28 01:42:00;;;;;;;;;;;;;;;17.20;100.00;100398.00;5051998;28;1288;-80
2023/07/28 01:44:25;;;;;;;;;;;;;;;17.19;100.00;100393.75;5058216;28;1085;-81
2023/07/28 01:46:50;;;;;;;;;;;;;;;17.21;100.00;100407.50;5052315;28;1085;-80
2023/07/28 01:49:16;;;;;;;;;;;;;;;17.17;100.00;100404.44;5036474;28;1316;-81
2023/07/28 01:51:41;;;;;;;;;;;;;;;17.17;100.00;100407.03;5057186;28;1288;-80
2023/07/28 01:54:06;;;;;;;;;;;;;;;17.17;100.00;100407.03;5051097;28;1193;-81
2023/07/28 01:56:31;;;;;;;;;;;;;;;17.18;100.00;100407.84;5039402;28;1341;-78
2023/07/28 01:58:56;;;;;;;;;;;;;;;17.18;100.00;100407.84;5056563;28;1949;-80
2023/07/28 02:01:22;;;;;;;;;;;;;;;17.18;100.00;100402.63;5042415;28;1398;-81
2023/07/28 02:03:47;;;;;;;;;;;;;;;17.17;100.00;100411.47;5059215;28;1964;-80
2023/07/28 02:06:12;;;;;;;;;;;;;;;17.16;100.00;100404.63;5068930;28;1153;-80
2023/07/28 02:08:37;;;;;;;;;;;;;;;17.17;100.00;100401.00;5066430;28;1268;-79
2023/07/28 02:11:02;;;;;;;;;;;;;;;17.18;100.00;100394.75;5050286;28;1516;-81
2023/07/28 02:13:28;;;;;;;;;;;;;;;17.16;100.00;100400.19;5072212;28;1244;-80
2023/07/28 02:15:53;;;;;;;;;;;;;;;17.16;100.00;100400.19;5045776;28;1435;-81
2023/07/28 02:18:18;;;;;;;;;;;;;;;17.17;100.00;100396.56;5069957;28;1910;-79
2023/07/28 02:20:43;;;;;;;;;;;;;;;17.18;100.00;100397.38;5061442;28;1229;-80
2023/07/28 02:23:08;;;;;;;;;;;;;;;17.18;100.00;100397.38;5059779;28;1264;-80
2023/07/28 02:25:34;;;;;;;;;;;;;;;17.18;100.00;100397.38;5059851;28;1319;-81
2023/07/28 02:27:59;;;;;;;;;;;;;;;17.18;100.00;100400.00;5063177;28;1083;-80
2023/07/28 02:30:24;;;;;;;;;;;;;;;17.18;100.00;100403.44;5050366;28;1343;-80
2023/07/28 02:32:49;;;;;;;;;;;;;;;17.19;100.00;100393.75;5058958;28;1586;-80
2023/07/28 02:35:14;;;;;;;;;;;;;;;17.18;100.00;100397.38;5068201;28;1228;-80
2023/07/28 02:37:40;;;;;;;;;;;;;;;17.19;100.00;100396.38;5063939;28;1414;-80
2023/07/28 02:40:05;;;;;;;;;;;;;;;17.19;100.00;100396.38;5059787;28;1973;-81
2023/07/28 02:42:30;;;;;;;;;;;;;;;17.20;100.00;100395.38;5042526;28;1337;-81
2023/07/28 02:44:56;;;;;;;;;;;;;;;17.21;100.00;100391.78;5065022;28;1093;-78
2023/07/28 02:47:21;;;;;;;;;;;;;;;17.20;100.00;100401.47;5056773;28;1134;-81
2023/07/28 02:49:46;;;;;;;;;;;;;;;17.21;100.00;100402.28;5065032;28;1153;-80
2023/07/28 02:52:11;;;;;;;;;;;;;;;17.20;100.00;100400.63;5055722;28;1065;-81
2023/07/28 02:54:37;;;;;;;;;;;;;;;17.20;100.00;100404.09;5062370;28;1210;-83
2023/07/28 02:57:02;;;;;;;;;;;;;;;17.16;100.00;100399.38;5067527;28;1089;-79
2023/07/28 02:59:27;;;;;;;;;;;;;;;17.20;100.00;100416.34;5052719;28;1894;-80
2023/07/28 03:01:53;;;;;;;;;;;;;;;17.23;100.00;100421.25;5070846;28;1241;-79
2023/07/28 03:04:19;;;;;;;;;;;;;;;17.23;100.00;100416.00;5061461;28;1076;-80
2023/07/28 03:06:45;;;;;;;;;;;;;;;17.21;100.00;100418.00;5066892;28;1087;-79
2023/07/28 03:09:10;;;;;;;;;;;;;;;17.21;100.00;100418.00;5050973;28;1061;-80
2023/07/28 03:11:36;;;;;;;;;;;;;;;17.20;100.00;100421.59;5068936;28;1069;-80
2023/07/28 03:14:01;;;;;;;;;;;;;;;17.20;100.00;100432.06;5069108;28;1102;-79
2023/07/28 03:16:26;;;;;;;;;;;;;;;17.20;100.00;100421.59;5046397;28;1015;-78
2023/07/28 03:18:52;;;;;;;;;;;;;;;17.20;100.00;100426.81;5055820;28;1963;-79
2023/07/28 03:21:17;;;;;;;;;;;;;;;17.21;100.00;100424.06;5071506;28;1164;-80
2023/07/28 03:23:42;;;;;;;;;;;;;;;17.20;100.00;100437.31;5077528;28;1345;-79
2023/07/28 03:26:07;;;;;;;;;;;;;;;17.20;100.00;100437.31;5068231;28;1146;-80
2023/07/28 03:28:32;;;;;;;;;;;;;;;17.20;100.00;100432.06;5069822;28;1175;-79
2023/07/28 03:30:58;;;;;;;;;;;;;;;17.22;100.00;100445.84;5062930;28;1240;-79
2023/07/28 03:33:23;;;;;;;;;;;;;;;17.20;100.00;100439.94;5053081;28;1359;-79
2023/07/28 03:35:48;;;;;;;;;;;;;;;17.20;100.00;100437.31;5067199;28;1232;-79
2023/07/28 03:38:13;;;;;;;;;;;;;;;17.21;100.00;100438.97;5072803;28;1991;-80
2023/07/28 03:40:38;;;;;;;;;;;;;;;17.21;100.00;100438.97;5066454;28;1249;-79
2023/07/28 03:43:04;;;;;;;;;;;;;;;17.22;100.00;100440.59;5067511;28;1696;-80
2023/07/28 03:45:29;;;;;;;;;;;;;;;17.23;100.00;100434.34;5047411;28;1486;-80
2023/07/28 03:47:54;;;;;;;;;;;;;;;17.23;100.00;100436.97;5068426;28;1408;-80
2023/07/28 03:50:20;;;;;;;;;;;;;;;17.23;100.00;100444.84;5064248;28;1471;-78
2023/07/28 03:52:45;;;;;;;;;;;;;;;17.22;100.00;100445.84;5062170;28;1246;-80
2023/07/28 03:55:10;;;;;;;;;;;;;;;17.20;100.00;100446.00;5071258;28;1169;-79
2023/07/28 03:57:35;;;;;;;;;;;;;;;17.20;100.00;100447.78;5068740;28;1275;-80
2023/07/28 04:00:01;;;;;;;;;;;;;;;17.22;100.00;100451.06;5055717;28;1905;-80
2023/07/28 04:02:26;;;;;;;;;;;;;;;17.21;100.00;100455.50;5054751;28;1334;-80
2023/07/28 04:04:55;;;;;;;;;;;;;;;17.23;100.00;100457.94;5071358;28;1094;-80
2023/07/28 04:07:20;;;;;;;;;;;;;;;17.23;100.00;100452.69;5063901;28;1288;-80
2023/07/28 04:09:45;;;;;;;;;;;;;;;17.25;100.00;100458.56;5051439;28;1305;-80
2023/07/28 04:12:10;;;;;;;;;;;;;;;17.25;100.00;100445.47;5068311;28;1434;-80
2023/07/28 04:14:36;;;;;;;;;;;;;;;17.23;100.00;100447.47;5066542;28;1153;-80
2023/07/28 04:17:01;;;;;;;;;;;;;;;17.22;100.00;100451.06;5065787;28;1143;-81
2023/07/28 04:19:28;;;;;;;;;;;;;;;17.22;100.00;100445.84;5048737;28;1953;-81
2023/07/28 04:21:54;;;;;;;;;;;;;;;17.22;100.00;100451.06;5062973;28;1205;-81
2023/07/28 04:24:19;;;;;;;;;;;;;;;17.22;100.00;100451.06;5070051;28;1200;-82
2023/07/28 04:26:48;;;;;;;;;;;;;;;17.22;100.00;100451.06;5072016;28;1233;-82
2023/07/28 04:29:13;;;;;;;;;;;;;;;17.21;100.00;100457.31;5069677;28;1244;-82
2023/07/28 04:31:39;;;;;;;;;;;;;;;17.20;100.00;100453.03;5071777;28;1221;-82
2023/07/28 04:34:04;;;;;;;;;;;;;;;17.19;100.00;100451.41;5052433;28;1344;-82
2023/07/28 04:36:29;;;;;;;;;;;;;;;17.22;100.00;100461.56;5075201;28;1558;-81
2023/07/28 04:38:54;;;;;;;;;;;;;;;17.22;100.00;100451.06;5076114;28;1941;-83
2023/07/28 04:41:20;;;;;;;;;;;;;;;17.21;100.00;100454.69;5059746;28;1571;-81
2023/07/28 04:43:46;;;;;;;;;;;;;;;17.21;100.00;100459.94;5078326;28;1430;-81
2023/07/28 04:46:11;;;;;;;;;;;;;;;17.22;100.00;100461.56;5065472;28;1342;-80
2023/07/28 04:48:36;;;;;;;;;;;;;;;17.21;100.00;100465.19;5071937;28;1215;-81
2023/07/28 04:51:01;;;;;;;;;;;;;;;17.21;100.00;100475.66;5067999;28;1199;-81
2023/07/28 04:53:27;;;;;;;;;;;;;;;17.22;100.00;100467.59;5066892;28;1165;-82
2023/07/28 04:55:52;;;;;;;;;;;;;;;17.22;100.00;100472.03;5069527;28;1033;-81
2023/07/28 04:58:17;;;;;;;;;;;;;;;17.21;100.00;100459.94;5066875;28;1906;-81
2023/07/28 05:00:42;;;;;;;;;;;;;;;17.20;100.00;100463.53;5074392;28;1236;-81
2023/07/28 05:03:07;;;;;;;;;;;;;;;17.21;100.00;100470.41;5076269;28;1137;-80
2023/07/28 05:05:33;;;;;;;;;;;;;;;17.22;100.00;100474.66;5069501;28;1672;-80
2023/07/28 05:07:58;;;;;;;;;;;;;;;17.21;100.00;100471.22;5049841;28;1200;-82
2023/07/28 05:10:23;;;;;;;;;;;;;;;17.22;100.00;100467.59;5069627;28;1044;-82
2023/07/28 05:12:49;;;;;;;;;;;;;;;17.21;100.00;100475.66;5060526;28;982;-82
2023/07/28 05:15:15;;;;;;;;;;;;;;;17.21;100.00;100475.66;5066199;28;1079;-81
2023/07/28 05:17:40;;;;;;;;;;;;;;;17.21;100.00;100475.66;5063201;28;1146;-83
2023/07/28 05:20:06;;;;;;;;;;;;;;;17.23;100.00;100476.28;5047099;28;1882;-82
2023/07/28 05:22:31;;;;;;;;;;;;;;;17.23;100.00;100476.28;5066162;28;1154;-83
2023/07/28 05:24:57;;;;;;;;;;;;;;;17.22;100.00;100477.28;5070203;28;1142;-82
2023/07/28 05:27:22;;;;;;;;;;;;;;;17.23;100.00;100473.66;5045262;28;1197;-82
2023/07/28 05:29:47;;;;;;;;;;;;;;;17.23;100.00;100478.91;5061898;28;1530;-83
2023/07/28 05:32:12;;;;;;;;;;;;;;;17.23;100.00;100484.97;5059683;28;1383;-81
2023/07/28 05:34:38;;;;;;;;;;;;;;;17.21;100.00;100491.38;5067313;28;1205;-81
2023/07/28 05:37:03;;;;;;;;;;;;;;;17.13;100.00;100478.31;5049407;28;1383;-81
2023/07/28 05:39:28;;;;;;;;;;;;;;;17.21;100.00;100491.38;5066254;28;1961;-82
2023/07/28 05:41:54;;;;;;;;;;;;;;;17.22;100.00;100493.00;5066903;28;1456;-81
2023/07/28 05:44:19;;;;;;;;;;;;;;;17.22;100.00;100485.16;5058409;23;2300;-82
2023/07/28 05:46:45;;;;;;;;;;;;;;;17.22;100.00;100493.00;5027508;28;1221;-83
2023/07/28 05:49:11;;;;;;;;;;;;;;;17.25;100.00;100484.78;5045065;28;1348;-83
2023/07/28 05:51:36;;;;;;;;;;;;;;;17.27;100.00;100488.06;5047499;28;1403;-83
2023/07/28 05:54:02;;;;;;;;;;;;;;;17.29;100.00;100499.16;5046496;28;1157;-84
2023/07/28 05:56:29;;;;;;;;;;;;;;;17.30;100.00;100500.78;5042728;28;1428;-82
2023/07/28 05:58:55;;;;;;;;;;;;;;;17.32;100.00;100498.81;5041254;28;1969;-82
2023/07/28 06:01:20;;;;;;;;;;;;;;;17.34;100.00;100496.84;5048927;28;1452;-82
2023/07/28 06:03:45;;;;;;;;;;;;;;;17.36;100.00;100500.09;5029821;28;1002;-83
2023/07/28 06:06:12;;;;;;;;;;;;;;;17.34;100.00;100512.56;5043459;28;1130;-83
2023/07/28 06:08:37;;;;;;;;;;;;;;;17.34;100.00;100512.56;5027941;28;1474;-83
2023/07/28 06:11:05;;;;;;;;;;;;;;;17.37;100.00;100521.88;5044813;28;1186;-83
2023/07/28 06:13:30;;;;;;;;;;;;;;;17.37;100.00;100509.56;5041666;28;1201;-82
2023/07/28 06:15:58;;;;;;;;;;;;;;;17.37;100.00;100514.81;5030487;28;1527;-84
2023/07/28 06:18:23;;;;;;;;;;;;;;;17.37;100.00;100517.44;5027751;28;1894;-84
2023/07/28 06:20:51;;;;;;;;;;;;;;;17.40;100.00;100522.34;5045809;28;1201;-83
2023/07/28 06:23:16;;;;;;;;;;;;;;;17.40;100.00;100522.34;5049276;28;1210;-84
2023/07/28 06:25:45;;;;;;;;;;;;;;;17.42;100.00;100530.03;5042110;28;1277;-84
2023/07/28 06:28:11;;;;;;;;;;;;;;;17.43;100.00;100529.88;5044755;28;1213;-83
2023/07/28 06:30:37;;;;;;;;;;;;;;;17.44;100.00;100534.09;5043976;28;1256;-84
2023/07/28 06:33:03;;;;;;;;;;;;;;;17.42;100.00;100536.06;5046204;28;1408;-83
2023/07/28 06:35:28;;;;;;;;;;;;;;;17.44;100.00;100543.78;5042351;28;1283;-83
2023/07/28 06:37:53;;;;;;;;;;;;;;;17.43;100.00;100545.59;5042217;28;1283;-83
2023/07/28 06:40:19;;;;;;;;;;;;;;;17.44;100.00;100549.84;5046607;28;1898;-83
2023/07/28 06:42:44;;;;;;;;;;;;;;;17.45;100.00;100551.47;5034806;28;1272;-83
2023/07/28 06:45:09;;;;;;;;;;;;;;;17.42;100.00;100541.31;5033155;28;1016;-82
2023/07/28 06:47:34;;;;;;;;;;;;;;;17.46;100.00;100555.72;5046288;28;1418;-83
2023/07/28 06:50:00;;;;;;;;;;;;;;;17.47;100.00;100554.72;5047902;28;1130;-83
2023/07/28 06:52:25;;;;;;;;;;;;;;;17.47;100.00;100559.97;5043190;28;1004;-83
2023/07/28 06:54:50;;;;;;;;;;;;;;;17.48;100.00;100561.59;5045211;28;1152;-83
2023/07/28 06:57:15;;;;;;;;;;;;;;;17.48;100.00;100566.84;5025296;28;1185;-82
2023/07/28 06:59:43;;;;;;;;;;;;;;;17.52;100.00;100562.06;5043327;28;1890;-83
2023/07/28 07:02:09;;;;;;;;;;;;;;;17.56;100.00;100562.53;5031876;28;1166;-81
2023/07/28 07:04:34;;;;;;;;;;;;;;;17.57;100.00;100569.41;5041399;28;1336;-82
2023/07/28 07:07:00;;;;;;;;;;;;;;;17.60;100.00;100569.03;5044827;28;1363;-81
2023/07/28 07:09:25;;;;;;;;;;;;;;;17.60;100.00;100587.38;5027175;28;1585;-85
2023/07/28 07:11:50;;;;;;;;;;;;;;;17.62;100.00;100577.56;5046084;28;1241;-83
2023/07/28 07:14:16;;;;;;;;;;;;;;;17.65;100.00;100585.06;5025348;28;1275;-83
2023/07/28 07:16:41;;;;;;;;;;;;;;;17.68;100.00;100584.72;5045678;28;1392;-83
2023/07/28 07:19:06;;;;;;;;;;;;;;;17.70;100.00;100585.34;5043463;28;1959;-83
2023/07/28 07:21:32;;;;;;;;;;;;;;;17.73;100.00;100585.84;5045837;28;1061;-82
2023/07/28 07:23:57;;;;;;;;;;;;;;;17.75;100.00;100593.53;5047426;28;1173;-83
2023/07/28 07:26:22;;;;;;;;;;;;;;;17.76;100.00;100592.53;5047767;28;1316;-83
2023/07/28 07:28:48;;;;;;;;;;;;;;;17.80;100.00;100606.94;5045667;28;1074;-85
2023/07/28 07:31:14;;;;;;;;;;;;;;;17.82;100.00;100599.69;5028710;28;1311;-86
2023/07/28 07:33:39;;;;;;;;;;;;;;;17.85;100.00;100593.28;5045167;28;1575;-85
2023/07/28 07:36:14;;;;;;;;;;;;;;;17.87;100.00;100599.97;5041140;28;1104;-85
2023/07/28 07:38:40;;;;;;;;;;;;;;;17.92;100.00;100600.25;5043038;28;1885;-84
2023/07/28 07:41:06;;;;;;;;;;;;;;;17.97;100.00;100597.91;5043189;28;1185;-86
2023/07/28 07:43:31;;;;;;;;;;;;;;;18.00;100.00;100601.97;5044710;28;1264;-85
2023/07/28 07:45:56;;;;;;;;;;;;;;;18.01;100.00;100607.06;5043558;28;1372;-85
2023/07/28 07:48:22;;;;;;;;;;;;;;;18.03;100.00;100610.31;5044008;28;1371;-86
2023/07/28 07:50:47;;;;;;;;;;;;;;;18.03;100.00;100607.69;5046095;28;1500;-84
2023/07/28 07:53:12;;;;;;;;;;;;;;;18.05;100.00;100610.94;5028280;28;1113;-85
2023/07/28 07:55:38;;;;;;;;;;;;;;;18.07;100.00;100608.16;5043258;28;1252;-84
2023/07/28 07:58:05;;;;;;;;;;;;;;;18.09;100.00;100610.59;5036466;28;1953;-85
2023/07/28 08:00:31;;;;;;;;;;;;;;;18.10;100.00;100606.97;5007057;23;2493;-89
2023/07/28 08:02:56;;;;;;;;;;;;;;;18.09;100.00;100615.84;5011477;28;1508;-89
2023/07/28 08:05:22;;;;;;;;;;;;;;;18.11;100.00;100621.72;5014232;28;1393;-90
2023/07/28 08:07:47;;;;;;;;;;;;;;;18.11;100.00;100613.84;5016171;28;1262;-88
2023/07/28 08:10:12;;;;;;;;;;;;;;;18.12;100.00;100615.47;5015539;28;1565;-88
2023/07/28 08:12:38;;;;;;;;;;;;;;;18.14;100.00;100624.00;5018006;28;1346;-89
2023/07/28 08:15:03;;;;;;;;;;;;;;;18.14;100.00;100629.25;5011759;28;1536;-88
2023/07/28 08:17:28;;;;;;;;;;;;;;;18.12;100.00;100621.56;5011725;28;1304;-88
2023/07/28 08:19:53;;;;;;;;;;;;;;;18.14;100.00;100622.19;4997620;28;2009;-87
2023/07/28 08:22:19;;;;;;;;;;;;;;;18.16;100.00;100628.06;5012616;28;1265;-89
2023/07/28 08:24:44;;;;;;;;;;;;;;;18.18;100.00;100633.13;5016957;28;1376;-89
2023/07/28 08:27:09;;;;;;;;;;;;;;;18.19;100.00;100632.16;5013703;28;1457;-90
2023/07/28 08:29:35;;;;;;;;;;;;;;;18.21;100.00;100635.41;4994659;28;1102;-89
2023/07/28 08:32:01;;;;;;;;;;;;;;;18.23;100.00;100638.66;5012337;28;1253;-89
2023/07/28 08:34:27;;;;;;;;;;;;;;;18.27;100.00;100629.44;5014346;28;1399;-88
2023/07/28 08:36:52;;;;;;;;;;;;;;;18.28;100.00;100641.56;5013795;28;1755;-88
2023/07/28 08:39:18;;;;;;;;;;;;;;;18.32;100.00;100645.47;5016906;28;1959;-88
2023/07/28 08:41:43;;;;;;;;;;;;;;;18.34;100.00;100638.22;5018520;28;1388;-89
2023/07/28 08:44:08;;;;;;;;;;;;;;;18.36;100.00;100649.38;5011005;28;1170;-89
2023/07/28 08:46:35;;;;;;;;;;;;;;;18.39;100.00;100649.00;5014328;28;1031;-89
2023/07/28 08:49:00;;;;;;;;;;;;;;;18.45;100.00;100650.91;5018518;28;1126;-89
2023/07/28 08:51:26;;;;;;;;;;;;;;;18.51;100.00;100652.00;5006987;28;1287;-89
2023/07/28 08:53:51;;;;;;;;;;;;;;;18.57;100.00;100646.81;4995927;28;1236;-89
2023/07/28 08:56:17;;;;;;;;;;;;;;;18.58;100.00;100648.47;5010754;28;1153;-89
2023/07/28 08:58:42;;;;;;;;;;;;;;;18.61;100.00;100662.25;5013992;28;1863;-89
2023/07/28 09:01:07;;;;;;;;;;;;;;;18.62;100.00;100650.72;5029113;28;1083;-89
2023/07/28 09:03:37;;;;;;;;;;;;;;;18.62;100.00;100663.88;5031286;28;1250;-88
2023/07/28 09:06:02;;;;;;;;;;;;;;;18.62;100.00;100658.63;5027766;28;1305;-89
2023/07/28 09:08:30;;;;;;;;;;;;;;;18.62;100.00;100663.88;5012556;28;1314;-88
2023/07/28 09:10:55;;;;;;;;;;;;;;;18.62;100.00;100666.50;5030557;28;1413;-90
2023/07/28 09:13:20;;;;;;;;;;;;;;;18.61;100.00;100670.94;5038596;28;1199;-89
2023/07/28 09:15:46;;;;;;;;;;;;;;;18.65;100.00;100679.28;5039972;28;1154;-90
2023/07/28 09:18:15;;;;;;;;;;;;;;;18.66;100.00;100675.66;5042286;28;1906;-90
2023/07/28 09:20:44;;;;;;;;;;;;;;;18.68;100.00;100668.41;5036309;28;1182;-88
2023/07/28 09:23:10;;;;;;;;;;;;;;;18.72;100.00;100664.44;5031710;28;1318;-87
2023/07/28 09:25:35;;;;;;;;;;;;;;;18.75;100.00;100669.31;5016892;28;1254;-88
2023/07/28 09:28:01;;;;;;;;;;;;;;;18.77;100.00;100669.97;5042853;28;1275;-89
2023/07/28 09:30:26;;;;;;;;;;;;;;;18.79;100.00;100667.97;5013326;28;1334;-89
2023/07/28 09:32:53;;;;;;;;;;;;;;;18.82;100.00;100670.25;5032848;28;1484;-89
2023/07/28 09:35:18;;;;;;;;;;;;;;;18.86;100.00;100671.47;5039970;28;1364;-89
2023/07/28 09:37:44;;;;;;;;;;;;;;;18.88;100.00;100666.88;5038117;28;1210;-88
2023/07/28 09:40:11;;;;;;;;;;;;;;;18.91;100.00;100674.38;5038078;28;1867;-89
2023/07/28 09:42:37;;;;;;;;;;;;;;;18.99;100.00;100671.66;5032948;28;1409;-88
2023/07/28 09:45:03;;;;;;;;;;;;;;;19.07;100.00;100679.44;5036258;28;1757;-89
2023/07/28 09:47:30;;;;;;;;;;;;;;;19.11;100.00;100674.63;5033146;28;1304;-89
2023/07/28 09:49:58;;;;;;;;;;;;;;;19.14;100.00;100673.44;5009780;28;1269;-89
2023/07/28 09:52:24;;;;;;;;;;;;;;;19.19;100.00;100676.34;5030433;28;1326;-89
2023/07/28 09:54:52;;;;;;;;;;;;;;;19.27;100.00;100670.97;5033872;28;1845;-89
2023/07/28 09:57:19;;;;;;;;;;;;;;;19.33;100.00;100667.59;5031689;28;1335;-88
2023/07/28 09:59:45;;;;;;;;;;;;;;;19.36;100.00;100667.22;5015086;28;1964;-89
2023/07/28 10:02:11;;;;;;;;;;;;;;;19.38;100.00;100680.97;5013902;28;1283;-88
2023/07/28 10:04:37;;;;;;;;;;;;;;;19.41;100.00;100675.38;5012457;28;1365;-89
2023/07/28 10:07:04;;;;;;;;;;;;;;;19.45;100.00;100676.63;5002491;28;1201;-88
2023/07/28 10:09:38;;;;;;;;;;;;;;;19.48;100.00;100678.88;5010428;28;1162;-89
2023/07/28 10:12:04;;;;;;;;;;;;;;;19.55;100.00;100677.13;5007885;28;1416;-89
2023/07/28 10:14:34;;;;;;;;;;;;;;;19.65;100.00;100676.03;5005313;28;1106;-89
2023/07/28 10:17:01;;;;;;;;;;;;;;;19.73;100.00;100673.28;4995134;28;1455;-88
2023/07/28 10:19:27;;;;;;;;;;;;;;;19.79;100.00;100677.81;5008084;28;1974;-90
2023/07/28 10:22:19;;;;;;;;;;;;;;;19.86;100.00;100676.03;5007906;28;1335;-89
2023/07/28 10:24:51;;;;;;;;;;;;;;;19.93;100.00;100679.53;5008727;28;1305;-89
2023/07/28 10:27:28;;;;;;;;;;;;;;;20.03;100.00;100676.59;5015048;28;1282;-88
2023/07/28 10:29:58;;;;;;;;;;;;;;;20.13;100.00;100669.97;5009054;28;1214;-89
2023/07/28 10:32:28;;;;;;;;;;;;;;;20.26;100.00;100673.72;5027612;28;1298;-89
2023/07/28 10:35:00;;;;;;;;;;;;;;;20.36;100.00;100674.19;5011106;28;1281;-89
2023/07/28 10:37:25;;;;;;;;;;;;;;;20.44;100.00;100676.66;5014170;28;1478;-89
2023/07/28 10:40:11;;;;;;;;;;;;;;;20.49;100.00;100676.94;5004534;28;1953;-90
2023/07/28 10:42:36;;;;;;;;;;;;;;;20.56;100.00;100676.97;5008844;28;1134;-89
2023/07/28 10:45:04;;;;;;;;;;;;;;;20.61;100.00;100678.00;5007936;28;1321;-88
2023/07/28 10:47:32;;;;;;;;;;;;;;;20.64;100.00;100682.91;5008915;28;1145;-88
2023/07/28 10:50:02;;;;;;;;;;;;;;;20.64;100.00;100688.19;5008106;28;1173;-89
2023/07/28 10:52:27;;;;;;;;;;;;;;;20.64;100.00;100688.19;4993311;28;2426;-89
2023/07/28 10:54:52;;;;;;;;;;;;;;;20.62;100.00;100689.34;5004394;28;1162;-89
2023/07/28 10:57:19;;;;;;;;;;;;;;;20.61;100.00;100685.09;5005736;28;1099;-89
2023/07/28 10:59:44;;;;;;;;;;;;;;;20.61;100.00;100677.19;5010877;28;1966;-89
2023/07/28 11:02:14;;;;;;;;;;;;;;;20.67;100.00;100687.78;5011872;28;1088;-89
2023/07/28 11:04:45;;;;;;;;;;;;;;;20.76;100.00;100680.53;5006837;28;1063;-88
2023/07/28 11:07:10;;;;;;;;;;;;;;;20.85;100.00;100675.91;5001361;28;1073;-89
2023/07/28 11:09:36;;;;;;;;;;;;;;;20.92;100.00;100684.63;5003443;28;1239;-89
2023/07/28 11:12:01;;;;;;;;;;;;;;;21.13;100.00;100687.16;5007393;28;1080;-89
2023/07/28 11:14:26;;;;;;;;;;;;;;;21.03;100.00;100686.72;4987760;28;1111;-89
2023/07/28 11:16:54;;;;;;;;;;;;;;;21.10;100.00;100676.19;5003623;28;1266;-90
2023/07/28 11:19:24;;;;;;;;;;;;;;;21.15;100.00;100684.31;5004534;28;1951;-89
2023/07/28 11:21:51;;;;;;;;;;;;;;;21.18;100.00;100679.47;5006197;28;945;-89
2023/07/28 11:24:18;;;;;;;;;;;;;;;21.20;100.00;100688.00;5028580;28;1125;-89
2023/07/28 11:26:46;;;;;;;;;;;;;;;21.26;100.00;100683.75;5007304;28;1305;-89
2023/07/28 11:29:11;;;;;;;;;;;;;;;21.32;100.00;100685.63;4994336;28;1455;-89
2023/07/28 11:31:36;;;;;;;;;;;;;;;21.37;100.00;100682.41;4994649;28;1352;-88
2023/07/28 11:34:02;;;;;;;;;;;;;;;21.43;100.00;100677.13;5013533;28;1313;-89
2023/07/28 11:36:28;;;;;;;;;;;;;;;21.56;100.00;100676.34;5005348;28;1321;-89
2023/07/28 11:38:54;;;;;;;;;;;;;;;21.56;100.00;100686.88;5019536;28;1965;-90
2023/07/28 11:41:20;;;;;;;;;;;;;;;21.61;100.00;100684.47;5014532;28;1307;-88
2023/07/28 11:43:49;;;;;;;;;;;;;;;21.65;98.55;100690.97;5008956;28;1273;-90
2023/07/28 11:46:33;;;;;;;;;;;;;;;21.58;99.05;100684.88;5005793;28;1230;-89
2023/07/28 11:49:14;;;;;;;;;;;;;;;21.63;98.74;100685.09;5012394;28;1203;-88
2023/07/28 11:51:40;;;;;;;;;;;;;;;21.60;98.40;100682.84;5012016;28;1238;-89
2023/07/28 11:54:06;;;;;;;;;;;;;;;21.63;97.74;100684.28;5011355;28;1221;-89
2023/07/28 11:56:31;;;;;;;;;;;;;;;21.68;98.28;100682.66;5012175;28;1229;-90
2023/07/28 11:58:58;;;;;;;;;;;;;;;21.70;96.19;100687.75;5011894;28;1947;-90
2023/07/28 12:01:23;;;;;;;;;;;;;;;21.66;95.39;100692.59;5030520;28;1533;-88
2023/07/28 12:03:48;;;;;;;;;;;;;;;21.72;96.47;100686.50;4997151;28;1352;-89
2023/07/28 12:06:14;;;;;;;;;;;;;;;21.73;96.46;100682.88;5013024;28;1070;-89
2023/07/28 12:08:39;;;;;;;;;;;;;;;21.87;96.94;100688.16;5023119;28;1515;-89
2023/07/28 12:11:05;;;;;;;;;;;;;;;22.02;96.96;100691.41;4996576;28;1297;-87
2023/07/28 12:13:30;;;;;;;;;;;;;;;22.07;95.64;100688.97;5011597;28;1523;-89
2023/07/28 12:15:55;;;;;;;;;;;;;;;22.16;94.92;100693.06;5011913;28;1303;-88
2023/07/28 12:18:22;;;;;;;;;;;;;;;22.24;95.87;100694.66;5011078;28;1902;-89
2023/07/28 12:20:49;;;;;;;;;;;;;;;22.43;92.04;100693.03;5012037;28;1184;-89
2023/07/28 12:23:16;;;;;;;;;;;;;;;22.34;91.50;100686.34;5011498;28;1532;-86
2023/07/28 12:25:42;;;;;;;;;;;;;;;22.36;92.76;100692.22;5014042;28;1321;-89
2023/07/28 12:28:07;;;;;;;;;;;;;;;22.38;93.27;100684.91;5017465;28;1290;-89
2023/07/28 12:30:33;;;;;;;;;;;;;;;22.45;92.34;100691.00;5025665;28;1652;-88
2023/07/28 12:32:58;;;;;;;;;;;;;;;22.44;90.92;100694.66;5013153;28;1764;-90